createdAt,value
2017-11-17T00:00:37.851Z,28.50
2017-11-17T00:01:37.855Z,28.90
2017-11-17T00:02:37.754Z,29.90
2017-11-17T00:03:37.719Z,29.30
2017-11-17T00:04:37.670Z,29.60
2017-11-17T00:05:37.625Z,28.20
2017-11-17T00:06:37.591Z,28.10
2017-11-17T00:07:37.552Z,27.70
2017-11-17T00:08:37.507Z,27.60
2017-11-17T00:09:37.465Z,27.30
2017-11-17T00:10:37.452Z,28.40
2017-11-17T00:11:37.399Z,28.90
2017-11-17T00:12:37.356Z,29.10
2017-11-17T00:13:37.317Z,28.90
2017-11-17T00:14:37.282Z,28.60
2017-11-17T00:15:37.235Z,27.40
2017-11-17T00:16:37.195Z,28.20
2017-11-17T00:17:37.156Z,29.10
2017-11-17T00:18:37.130Z,28.60
2017-11-17T00:19:37.103Z,28.50
2017-11-17T00:20:37.043Z,28.60
2017-11-17T00:21:37.025Z,28.40
2017-11-17T00:22:36.961Z,30.20
2017-11-17T00:23:36.933Z,29.20
2017-11-17T00:24:36.906Z,29.20
2017-11-17T00:25:36.858Z,28.90
2017-11-17T00:26:36.815Z,27.70
2017-11-17T00:27:36.768Z,28.60
2017-11-17T00:28:36.729Z,27.90
2017-11-17T00:29:36.693Z,27.40
2017-11-17T00:30:36.653Z,27.00
2017-11-17T00:31:36.612Z,26.90
2017-11-17T00:32:36.572Z,26.60
2017-11-17T00:33:36.541Z,27.40
2017-11-17T00:34:36.494Z,26.50
2017-11-17T00:35:36.463Z,26.00
2017-11-17T00:36:36.419Z,27.10
2017-11-17T00:37:36.375Z,27.00
2017-11-17T00:38:36.343Z,25.00
2017-11-17T00:39:36.305Z,25.50
2017-11-17T00:40:36.261Z,25.70
2017-11-17T00:41:36.252Z,25.90
2017-11-17T00:42:36.189Z,27.10
2017-11-17T00:43:36.153Z,26.20
2017-11-17T00:44:36.115Z,26.20
2017-11-17T00:45:36.069Z,25.90
2017-11-17T00:46:36.028Z,27.60
2017-11-17T00:47:35.994Z,25.50
2017-11-17T00:48:35.955Z,26.10
2017-11-17T00:49:35.933Z,24.90
2017-11-17T00:50:35.884Z,24.30
2017-11-17T00:51:35.841Z,24.40
2017-11-17T00:52:35.796Z,25.00
2017-11-17T00:53:35.764Z,25.90
2017-11-17T00:54:35.726Z,25.00
2017-11-17T00:55:35.683Z,24.40
2017-11-17T00:56:35.649Z,25.90
2017-11-17T00:57:35.613Z,25.00
2017-11-17T00:58:35.566Z,25.60
2017-11-17T00:59:35.525Z,25.10
2017-11-17T01:00:35.494Z,26.00
2017-11-17T01:01:35.453Z,25.10
2017-11-17T01:02:35.416Z,25.20
2017-11-17T01:03:35.376Z,25.40
2017-11-17T01:04:35.332Z,24.40
2017-11-17T01:05:35.305Z,25.20
2017-11-17T01:06:35.276Z,24.80
2017-11-17T01:07:36.132Z,25.40
2017-11-17T01:08:35.207Z,24.80
2017-11-17T01:09:35.143Z,25.90
2017-11-17T01:10:35.117Z,24.90
2017-11-17T01:11:35.059Z,25.50
2017-11-17T01:12:35.029Z,24.80
2017-11-17T01:13:34.982Z,25.30
2017-11-17T01:14:34.946Z,25.90
2017-11-17T01:15:34.913Z,25.00
2017-11-17T01:16:34.867Z,26.20
2017-11-17T01:17:34.830Z,25.50
2017-11-17T01:18:34.790Z,26.50
2017-11-17T01:19:34.752Z,25.20
2017-11-17T01:20:34.712Z,25.60
2017-11-17T01:21:34.682Z,25.00
2017-11-17T01:22:34.636Z,27.10
2017-11-17T01:23:34.624Z,25.90
2017-11-17T01:24:34.555Z,26.20
2017-11-17T01:25:34.525Z,26.40
2017-11-17T01:26:34.481Z,24.80
2017-11-17T01:27:34.440Z,26.60
2017-11-17T01:28:34.404Z,26.10
2017-11-17T01:29:34.364Z,25.90
2017-11-17T01:30:34.352Z,26.30
2017-11-17T01:31:34.286Z,25.90
2017-11-17T01:32:34.248Z,25.50
2017-11-17T01:33:34.217Z,24.90
2017-11-17T01:34:34.168Z,26.50
2017-11-17T01:35:34.132Z,23.90
2017-11-17T01:36:34.091Z,24.70
2017-11-17T01:37:34.053Z,24.50
2017-11-17T01:38:34.032Z,25.80
2017-11-17T01:39:33.984Z,25.50
2017-11-17T01:40:33.948Z,26.10
2017-11-17T01:41:33.904Z,26.60
2017-11-17T01:42:33.863Z,26.00
2017-11-17T01:43:33.825Z,24.60
2017-11-17T01:44:33.782Z,25.20
2017-11-17T01:45:33.756Z,25.50
2017-11-17T01:46:33.741Z,26.30
2017-11-17T01:47:33.680Z,27.30
2017-11-17T01:48:33.640Z,27.60
2017-11-17T01:49:33.599Z,27.70
2017-11-17T01:50:33.553Z,27.90
2017-11-17T01:51:33.523Z,26.30
2017-11-17T01:52:33.485Z,27.40
2017-11-17T01:53:33.434Z,25.70
2017-11-17T01:54:33.398Z,26.50
2017-11-17T01:55:33.359Z,25.90
2017-11-17T01:56:33.318Z,25.50
2017-11-17T01:57:33.284Z,26.10
2017-11-17T01:58:33.249Z,26.10
2017-11-17T01:59:33.201Z,26.10
2017-11-17T02:00:33.161Z,25.60
2017-11-17T02:01:33.126Z,25.30
2017-11-17T02:02:33.093Z,26.20
2017-11-17T02:03:33.050Z,25.10
2017-11-17T02:04:33.007Z,25.70
2017-11-17T02:05:32.970Z,26.30
2017-11-17T02:06:32.940Z,25.30
2017-11-17T02:07:32.906Z,25.90
2017-11-17T02:08:32.852Z,24.60
2017-11-17T02:09:32.818Z,24.80
2017-11-17T02:10:32.782Z,26.30
2017-11-17T02:11:32.736Z,25.70
2017-11-17T02:12:32.705Z,26.20
2017-11-17T02:13:32.661Z,25.70
2017-11-17T02:14:32.621Z,25.30
2017-11-17T02:15:32.582Z,24.60
2017-11-17T02:16:32.548Z,25.40
2017-11-17T02:17:32.507Z,25.40
2017-11-17T02:18:32.487Z,25.00
2017-11-17T02:19:32.430Z,24.30
2017-11-17T02:20:32.386Z,25.20
2017-11-17T02:21:32.347Z,26.00
2017-11-17T02:22:32.317Z,25.80
2017-11-17T02:23:32.270Z,24.90
2017-11-17T02:24:32.242Z,25.60
2017-11-17T02:25:32.206Z,25.40
2017-11-17T02:26:32.155Z,25.10
2017-11-17T02:27:32.126Z,25.10
2017-11-17T02:28:32.078Z,24.20
2017-11-17T02:29:32.037Z,24.00
2017-11-17T02:30:32.000Z,25.50
2017-11-17T02:31:31.964Z,25.50
2017-11-17T02:32:31.922Z,25.80
2017-11-17T02:33:31.911Z,25.10
2017-11-17T02:34:31.850Z,25.20
2017-11-17T02:35:31.806Z,24.70
2017-11-17T02:36:31.772Z,24.60
2017-11-17T02:37:31.734Z,26.00
2017-11-17T02:38:31.690Z,25.40
2017-11-17T02:39:31.650Z,25.70
2017-11-17T02:40:31.614Z,24.10
2017-11-17T02:41:31.572Z,24.90
2017-11-17T02:42:31.539Z,25.00
2017-11-17T02:43:31.510Z,25.50
2017-11-17T02:44:31.459Z,25.20
2017-11-17T02:45:31.419Z,25.00
2017-11-17T02:46:31.382Z,26.40
2017-11-17T02:47:31.340Z,26.50
2017-11-17T02:48:31.300Z,26.50
2017-11-17T02:49:31.280Z,25.90
2017-11-17T02:50:31.233Z,26.40
2017-11-17T02:51:31.185Z,24.30
2017-11-17T02:52:31.151Z,26.30
2017-11-17T02:53:31.113Z,25.60
2017-11-17T02:54:31.072Z,25.50
2017-11-17T02:55:31.030Z,26.30
2017-11-17T02:56:30.998Z,26.60
2017-11-17T02:57:30.956Z,26.50
2017-11-17T02:58:30.917Z,25.10
2017-11-17T02:59:30.904Z,26.50
2017-11-17T03:00:30.837Z,26.20
2017-11-17T03:01:30.812Z,27.20
2017-11-17T03:02:30.760Z,24.90
2017-11-17T03:03:30.723Z,26.90
2017-11-17T03:04:30.684Z,26.80
2017-11-17T03:05:30.657Z,27.20
2017-11-17T03:06:30.604Z,27.00
2017-11-17T03:07:30.564Z,27.00
2017-11-17T03:08:30.526Z,26.50
2017-11-17T03:09:30.489Z,27.20
2017-11-17T03:10:30.450Z,25.90
2017-11-17T03:11:30.415Z,27.50
2017-11-17T03:12:30.373Z,27.00
2017-11-17T03:13:30.338Z,29.00
2017-11-17T03:14:30.298Z,27.70
2017-11-17T03:15:30.260Z,27.00
2017-11-17T03:16:30.220Z,26.30
2017-11-17T03:17:30.182Z,27.70
2017-11-17T03:18:30.149Z,26.80
2017-11-17T03:19:30.105Z,27.30
2017-11-17T03:20:30.067Z,26.90
2017-11-17T03:21:30.025Z,25.90
2017-11-17T03:22:29.986Z,27.10
2017-11-17T03:23:29.951Z,27.70
2017-11-17T03:24:29.906Z,27.10
2017-11-17T03:25:29.877Z,28.00
2017-11-17T03:26:29.827Z,26.30
2017-11-17T03:27:29.797Z,27.50
2017-11-17T03:28:29.757Z,28.10
2017-11-17T03:29:29.723Z,28.00
2017-11-17T03:30:29.681Z,27.90
2017-11-17T03:31:29.645Z,28.70
2017-11-17T03:32:29.601Z,28.10
2017-11-17T03:33:29.569Z,28.20
2017-11-17T03:34:29.519Z,29.00
2017-11-17T03:35:29.482Z,28.20
2017-11-17T03:36:29.442Z,26.90
2017-11-17T03:37:29.408Z,26.10
2017-11-17T03:38:29.370Z,27.10
2017-11-17T03:39:29.332Z,27.80
2017-11-17T03:40:29.289Z,27.90
2017-11-17T03:41:29.250Z,28.80
2017-11-17T03:42:29.210Z,29.60
2017-11-17T03:43:29.173Z,27.30
2017-11-17T03:44:29.134Z,28.80
2017-11-17T03:45:29.097Z,27.90
2017-11-17T03:46:29.059Z,28.20
2017-11-17T03:47:29.022Z,28.90
2017-11-17T03:48:28.978Z,27.60
2017-11-17T03:49:28.937Z,28.70
2017-11-17T03:50:28.903Z,28.50
2017-11-17T03:51:28.859Z,27.90
2017-11-17T03:52:28.819Z,27.20
2017-11-17T03:53:28.784Z,27.30
2017-11-17T03:54:28.743Z,29.50
2017-11-17T03:55:28.710Z,28.30
2017-11-17T03:56:28.673Z,29.60
2017-11-17T03:57:28.628Z,30.00
2017-11-17T03:58:28.590Z,29.80
2017-11-17T03:59:28.560Z,29.10
2017-11-17T04:00:28.515Z,30.20
2017-11-17T04:01:28.473Z,29.30
2017-11-17T04:02:28.435Z,29.70
2017-11-17T04:03:28.398Z,30.50
2017-11-17T04:04:28.363Z,29.90
2017-11-17T04:05:28.322Z,29.30
2017-11-17T04:06:28.279Z,31.10
2017-11-17T04:07:28.240Z,30.30
2017-11-17T04:08:28.209Z,31.80
2017-11-17T04:09:28.164Z,29.90
2017-11-17T04:10:28.127Z,30.50
2017-11-17T04:11:28.086Z,31.50
2017-11-17T04:12:28.078Z,30.90
2017-11-17T04:13:28.013Z,30.60
2017-11-17T04:14:27.974Z,30.30
2017-11-17T04:15:27.931Z,31.10
2017-11-17T04:16:27.891Z,30.90
2017-11-17T04:17:27.862Z,30.90
2017-11-17T04:18:27.818Z,32.30
2017-11-17T04:19:27.779Z,31.00
2017-11-17T04:20:27.742Z,30.90
2017-11-17T04:21:27.704Z,32.40
2017-11-17T04:22:27.684Z,31.30
2017-11-17T04:23:27.638Z,31.30
2017-11-17T04:24:27.578Z,32.60
2017-11-17T04:25:27.541Z,33.50
2017-11-17T04:26:27.517Z,31.20
2017-11-17T04:27:27.469Z,33.00
2017-11-17T04:28:27.426Z,33.80
2017-11-17T04:29:27.385Z,32.30
2017-11-17T04:30:27.348Z,33.30
2017-11-17T04:31:27.306Z,31.80
2017-11-17T04:32:27.268Z,32.20
2017-11-17T04:33:27.231Z,33.50
2017-11-17T04:34:27.195Z,34.00
2017-11-17T04:35:27.198Z,32.50
2017-11-17T04:36:27.113Z,32.10
2017-11-17T04:37:27.075Z,32.30
2017-11-17T04:38:27.033Z,32.30
2017-11-17T04:39:26.997Z,33.10
2017-11-17T04:40:27.085Z,33.20
2017-11-17T04:41:26.918Z,32.90
2017-11-17T04:42:26.880Z,31.10
2017-11-17T04:43:26.858Z,32.50
2017-11-17T04:44:26.809Z,32.20
2017-11-17T04:45:26.759Z,32.90
2017-11-17T04:46:26.728Z,31.90
2017-11-17T04:47:26.685Z,32.80
2017-11-17T04:48:26.642Z,31.80
2017-11-17T04:49:26.606Z,33.70
2017-11-17T04:50:26.567Z,34.30
2017-11-17T04:51:26.535Z,34.70
2017-11-17T04:52:26.490Z,35.00
2017-11-17T04:53:26.451Z,33.80
2017-11-17T04:54:26.411Z,32.90
2017-11-17T04:55:26.386Z,32.40
2017-11-17T04:56:26.334Z,34.20
2017-11-17T04:57:26.298Z,34.70
2017-11-17T04:58:26.259Z,33.80
2017-11-17T04:59:26.216Z,35.60
2017-11-17T05:00:26.185Z,34.10
2017-11-17T05:01:26.148Z,34.60
2017-11-17T05:02:26.100Z,34.80
2017-11-17T05:03:26.061Z,34.80
2017-11-17T05:04:26.037Z,33.80
2017-11-17T05:05:26.014Z,33.70
2017-11-17T05:06:25.945Z,35.50
2017-11-17T05:07:25.923Z,35.30
2017-11-17T05:08:25.868Z,34.90
2017-11-17T05:09:25.828Z,34.00
2017-11-17T05:10:25.790Z,34.80
2017-11-17T05:11:25.754Z,35.00
2017-11-17T05:12:25.711Z,34.00
2017-11-17T05:13:25.670Z,33.70
2017-11-17T05:14:25.633Z,33.30
2017-11-17T05:15:25.599Z,35.40
2017-11-17T05:16:25.601Z,35.00
2017-11-17T05:17:25.521Z,33.00
2017-11-17T05:18:25.476Z,34.70
2017-11-17T05:19:25.437Z,33.60
2017-11-17T05:20:25.406Z,35.20
2017-11-17T05:21:25.361Z,34.60
2017-11-17T05:22:25.323Z,34.50
2017-11-17T05:23:25.282Z,34.80
2017-11-17T05:24:25.255Z,33.40
2017-11-17T05:25:25.201Z,33.00
2017-11-17T05:26:25.163Z,35.30
2017-11-17T05:27:25.139Z,33.00
2017-11-17T05:28:25.081Z,33.70
2017-11-17T05:29:25.041Z,32.60
2017-11-17T05:30:25.013Z,34.50
2017-11-17T05:31:24.967Z,31.00
2017-11-17T05:32:24.934Z,33.20
2017-11-17T05:33:24.888Z,35.70
2017-11-17T05:34:24.849Z,35.90
2017-11-17T05:35:24.827Z,35.70
2017-11-17T05:36:24.769Z,36.30
2017-11-17T05:37:24.738Z,34.90
2017-11-17T05:38:24.705Z,35.30
2017-11-17T05:39:24.670Z,34.00
2017-11-17T05:40:24.619Z,34.10
2017-11-17T05:41:24.571Z,34.40
2017-11-17T05:42:24.534Z,32.00
2017-11-17T05:43:24.499Z,32.60
2017-11-17T05:44:24.491Z,33.00
2017-11-17T05:45:24.417Z,33.30
2017-11-17T05:46:24.376Z,33.10
2017-11-17T05:47:24.340Z,33.00
2017-11-17T05:48:24.298Z,31.00
2017-11-17T05:49:24.259Z,32.90
2017-11-17T05:50:24.230Z,32.00
2017-11-17T05:51:24.181Z,30.50
2017-11-17T05:52:24.140Z,33.20
2017-11-17T05:53:24.102Z,32.80
2017-11-17T05:54:24.062Z,34.40
2017-11-17T05:55:24.022Z,34.50
2017-11-17T05:56:23.985Z,32.90
2017-11-17T05:57:23.945Z,33.50
2017-11-17T05:58:23.903Z,33.50
2017-11-17T05:59:23.865Z,34.30
2017-11-17T06:00:23.831Z,36.10
2017-11-17T06:01:23.792Z,36.50
2017-11-17T06:02:23.751Z,34.50
2017-11-17T06:03:23.707Z,34.20
2017-11-17T06:04:23.669Z,33.50
2017-11-17T06:05:23.630Z,32.50
2017-11-17T06:06:23.594Z,32.40
2017-11-17T06:07:23.549Z,32.60
2017-11-17T06:08:23.510Z,33.90
2017-11-17T06:09:23.470Z,32.50
2017-11-17T06:10:23.440Z,33.60
2017-11-17T06:11:23.392Z,35.10
2017-11-17T06:12:23.356Z,33.50
2017-11-17T06:13:23.314Z,33.40
2017-11-17T06:14:23.279Z,32.10
2017-11-17T06:15:23.231Z,32.80
2017-11-17T06:16:23.191Z,34.60
2017-11-17T06:17:23.154Z,31.80
2017-11-17T06:18:23.124Z,31.70
2017-11-17T06:19:23.075Z,31.80
2017-11-17T06:20:23.039Z,34.00
2017-11-17T06:21:22.997Z,31.20
2017-11-17T06:22:22.967Z,34.50
2017-11-17T06:23:22.919Z,31.80
2017-11-17T06:24:22.885Z,32.80
2017-11-17T06:25:22.844Z,32.10
2017-11-17T06:26:22.804Z,32.50
2017-11-17T06:27:22.830Z,31.70
2017-11-17T06:28:22.755Z,32.10
2017-11-17T06:29:22.687Z,32.70
2017-11-17T06:30:22.673Z,33.40
2017-11-17T06:31:22.610Z,33.90
2017-11-17T06:32:22.569Z,34.80
2017-11-17T06:33:22.528Z,34.60
2017-11-17T06:34:22.518Z,35.00
2017-11-17T06:35:22.469Z,33.20
2017-11-17T06:36:22.414Z,33.90
2017-11-17T06:37:22.367Z,34.40
2017-11-17T06:38:22.328Z,34.20
2017-11-17T06:39:22.290Z,32.50
2017-11-17T06:40:22.246Z,32.90
2017-11-17T06:41:22.211Z,31.70
2017-11-17T06:42:22.172Z,33.10
2017-11-17T06:43:22.130Z,32.10
2017-11-17T06:44:22.104Z,31.20
2017-11-17T06:45:22.057Z,31.30
2017-11-17T06:46:22.713Z,33.10
2017-11-17T06:47:21.972Z,32.70
2017-11-17T06:48:21.951Z,31.70
2017-11-17T06:49:21.888Z,30.40
2017-11-17T06:50:21.858Z,30.00
2017-11-17T06:51:21.815Z,31.90
2017-11-17T06:52:21.772Z,30.80
2017-11-17T06:53:21.735Z,31.20
2017-11-17T06:54:21.698Z,32.00
2017-11-17T06:55:21.659Z,32.20
2017-11-17T06:56:21.613Z,30.50
2017-11-17T06:57:21.575Z,29.10
2017-11-17T06:58:21.533Z,28.70
2017-11-17T06:59:21.510Z,29.70
2017-11-17T07:00:21.468Z,29.00
2017-11-17T07:01:21.416Z,27.90
2017-11-17T07:02:21.375Z,29.30
2017-11-17T07:03:21.345Z,29.20
2017-11-17T07:04:21.298Z,25.90
2017-11-17T07:05:21.258Z,25.80
2017-11-17T07:06:21.213Z,27.80
2017-11-17T07:07:21.181Z,26.00
2017-11-17T07:08:21.140Z,27.40
2017-11-17T07:09:21.094Z,27.00
2017-11-17T07:10:21.105Z,27.00
2017-11-17T07:11:21.019Z,24.70
2017-11-17T07:12:21.000Z,26.10
2017-11-17T07:13:20.942Z,25.30
2017-11-17T07:14:20.905Z,26.00
2017-11-17T07:15:20.864Z,25.50
2017-11-17T07:16:20.827Z,24.70
2017-11-17T07:17:20.789Z,25.20
2017-11-17T07:18:20.742Z,25.10
2017-11-17T07:19:20.703Z,24.10
2017-11-17T07:20:20.661Z,24.90
2017-11-17T07:21:20.625Z,24.80
2017-11-17T07:22:20.641Z,24.70
2017-11-17T07:23:20.572Z,25.00
2017-11-17T07:24:20.498Z,24.00
2017-11-17T07:25:20.460Z,24.00
2017-11-17T07:26:20.424Z,22.90
2017-11-17T07:27:20.395Z,22.90
2017-11-17T07:28:20.399Z,25.40
2017-11-17T07:29:20.302Z,24.00
2017-11-17T07:30:20.289Z,21.70
2017-11-17T07:31:20.257Z,20.70
2017-11-17T07:32:20.200Z,20.90
2017-11-17T07:33:20.146Z,21.60
2017-11-17T07:34:20.171Z,21.10
2017-11-17T07:35:20.064Z,22.20
2017-11-17T07:36:20.069Z,22.60
2017-11-17T07:37:19.995Z,20.80
2017-11-17T07:38:20.070Z,21.30
2017-11-17T07:39:19.926Z,19.80
2017-11-17T07:40:19.916Z,20.30
2017-11-17T07:41:19.828Z,20.70
2017-11-17T07:42:19.795Z,18.70
2017-11-17T07:43:19.753Z,17.90
2017-11-17T07:44:19.715Z,18.10
2017-11-17T07:45:19.667Z,17.00
2017-11-17T07:46:19.626Z,18.20
2017-11-17T07:47:19.588Z,16.50
2017-11-17T07:48:19.547Z,16.50
2017-11-17T07:49:19.509Z,16.90
2017-11-17T07:50:19.473Z,17.10
2017-11-17T07:51:19.429Z,15.70
2017-11-17T07:52:19.391Z,14.80
2017-11-17T07:53:19.358Z,15.70
2017-11-17T07:54:19.314Z,14.90
2017-11-17T07:55:19.313Z,15.50
2017-11-17T07:56:19.238Z,14.50
2017-11-17T07:57:19.203Z,13.30
2017-11-17T07:58:19.156Z,13.70
2017-11-17T07:59:19.117Z,13.60
2017-11-17T08:00:19.110Z,12.40
2017-11-17T08:01:19.040Z,13.00
2017-11-17T08:02:19.015Z,12.40
2017-11-17T08:03:18.960Z,11.50
2017-11-17T08:04:18.919Z,12.40
2017-11-17T08:05:18.881Z,11.10
2017-11-17T08:06:18.843Z,11.40
2017-11-17T08:07:18.821Z,10.70
2017-11-17T08:08:18.786Z,11.00
2017-11-17T08:09:18.720Z,10.00
2017-11-17T08:10:18.683Z,9.50
2017-11-17T08:11:18.644Z,10.80
2017-11-17T08:12:18.599Z,10.60
2017-11-17T08:13:18.558Z,10.30
2017-11-17T08:14:18.533Z,10.80
2017-11-17T08:15:18.539Z,10.70
2017-11-17T08:16:18.443Z,9.50
2017-11-17T08:17:18.418Z,10.40
2017-11-17T08:18:18.404Z,9.40
2017-11-17T08:19:18.330Z,11.00
2017-11-17T08:20:18.286Z,10.10
2017-11-17T08:21:18.246Z,10.60
2017-11-17T08:22:18.203Z,10.10
2017-11-17T08:23:18.164Z,10.50
2017-11-17T08:24:18.167Z,10.90
2017-11-17T08:25:18.091Z,11.30
2017-11-17T08:26:18.055Z,9.50
2017-11-17T08:27:18.015Z,10.70
2017-11-17T08:28:18.765Z,11.20
2017-11-17T08:29:17.947Z,11.30
2017-11-17T08:30:17.886Z,11.90
2017-11-17T08:31:17.877Z,11.00
2017-11-17T08:32:17.814Z,10.50
2017-11-17T08:33:19.733Z,10.60
2017-11-17T08:34:17.768Z,11.10
2017-11-17T08:35:17.707Z,10.20
2017-11-17T08:36:17.652Z,11.80
2017-11-17T08:37:17.620Z,10.20
2017-11-17T08:38:19.218Z,10.00
2017-11-17T08:39:17.540Z,10.30
2017-11-17T08:40:17.493Z,10.50
2017-11-17T08:41:17.474Z,11.50
2017-11-17T08:42:17.416Z,11.00
2017-11-17T08:43:20.263Z,9.70
2017-11-17T08:44:17.356Z,10.30
2017-11-17T08:45:17.295Z,11.40
2017-11-17T08:46:20.846Z,9.50
2017-11-17T08:47:19.232Z,9.40
2017-11-17T08:48:18.735Z,10.40
2017-11-17T08:49:17.136Z,9.50
2017-11-17T08:50:17.736Z,9.60
2017-11-17T08:51:21.811Z,10.00
2017-11-17T08:52:17.026Z,9.50
2017-11-17T08:53:16.981Z,10.40
2017-11-17T08:54:16.952Z,10.10
2017-11-17T08:55:16.910Z,10.10
2017-11-17T08:56:16.861Z,9.40
2017-11-17T08:57:16.832Z,8.50
2017-11-17T08:58:16.790Z,10.00
2017-11-17T08:59:16.755Z,8.60
2017-11-17T09:00:16.702Z,8.20
2017-11-17T09:01:16.667Z,7.60
2017-11-17T09:02:16.629Z,7.70
2017-11-17T09:03:16.585Z,8.20
2017-11-17T09:04:16.548Z,8.30
2017-11-17T09:05:16.513Z,8.00
2017-11-17T09:06:16.469Z,7.70
2017-11-17T09:07:16.453Z,8.10
2017-11-17T09:08:16.411Z,7.80
2017-11-17T09:09:16.357Z,8.50
2017-11-17T09:10:16.324Z,8.20
2017-11-17T09:11:16.277Z,7.80
2017-11-17T09:12:16.241Z,7.20
2017-11-17T09:13:16.201Z,8.30
2017-11-17T09:14:16.156Z,8.10
2017-11-17T09:15:16.127Z,8.40
2017-11-17T09:16:16.097Z,8.00
2017-11-17T09:17:16.043Z,9.00
2017-11-17T09:18:16.024Z,7.70
2017-11-17T09:19:15.968Z,8.10
2017-11-17T09:20:15.931Z,8.00
2017-11-17T09:21:15.882Z,8.00
2017-11-17T09:22:15.845Z,7.60
2017-11-17T09:23:15.809Z,7.50
2017-11-17T09:24:15.766Z,7.50
2017-11-17T09:25:15.726Z,7.40
2017-11-17T09:26:15.691Z,7.70
2017-11-17T09:27:15.653Z,7.80
2017-11-17T09:28:15.640Z,7.30
2017-11-17T09:29:15.571Z,6.60
2017-11-17T09:30:15.536Z,7.30
2017-11-17T09:31:15.492Z,6.70
2017-11-17T09:32:15.452Z,7.90
2017-11-17T09:33:15.413Z,6.80
2017-11-17T09:34:15.391Z,7.20
2017-11-17T09:35:15.337Z,6.80
2017-11-17T09:36:16.242Z,6.50
2017-11-17T09:37:15.259Z,5.90
2017-11-17T09:38:15.233Z,6.40
2017-11-17T09:39:15.184Z,6.80
2017-11-17T09:40:15.147Z,6.80
2017-11-17T09:41:15.120Z,6.40
2017-11-17T09:42:15.063Z,7.20
2017-11-17T09:43:15.046Z,6.50
2017-11-17T09:44:16.724Z,6.30
2017-11-17T09:45:14.944Z,6.10
2017-11-17T09:46:14.902Z,5.90
2017-11-17T09:47:14.867Z,6.40
2017-11-17T09:48:14.841Z,6.00
2017-11-17T09:49:14.796Z,6.10
2017-11-17T09:50:14.750Z,6.30
2017-11-17T09:51:14.727Z,6.10
2017-11-17T09:52:14.671Z,6.30
2017-11-17T09:53:14.632Z,6.10
2017-11-17T09:54:14.591Z,5.80
2017-11-17T09:55:14.574Z,5.60
2017-11-17T09:56:14.519Z,6.10
2017-11-17T09:57:14.477Z,5.30
2017-11-17T09:58:14.455Z,5.60
2017-11-17T09:59:14.402Z,5.10
2017-11-17T10:00:14.364Z,5.30
2017-11-17T10:01:14.319Z,4.90
2017-11-17T10:02:14.283Z,5.00
2017-11-17T10:03:14.262Z,3.50
2017-11-17T10:04:14.201Z,4.60
2017-11-17T10:05:14.189Z,4.80
2017-11-17T10:06:14.214Z,4.80
2017-11-17T10:07:18.726Z,4.60
2017-11-17T10:08:14.069Z,4.30
2017-11-17T10:09:14.018Z,4.50
2017-11-17T10:10:13.969Z,6.10
2017-11-17T10:11:14.745Z,5.10
2017-11-17T10:12:13.897Z,4.80
2017-11-17T10:13:13.880Z,5.10
2017-11-17T10:14:13.816Z,5.10
2017-11-17T10:15:14.754Z,5.40
2017-11-17T10:16:13.754Z,4.80
2017-11-17T10:17:13.701Z,5.50
2017-11-17T10:18:13.664Z,6.30
2017-11-17T10:19:13.620Z,5.30
2017-11-17T10:20:14.252Z,5.10
2017-11-17T10:21:13.549Z,4.50
2017-11-17T10:22:13.524Z,4.80
2017-11-17T10:23:13.473Z,4.10
2017-11-17T10:24:13.454Z,4.00
2017-11-17T10:25:13.390Z,4.70
2017-11-17T10:26:14.253Z,4.60
2017-11-17T10:27:13.313Z,4.80
2017-11-17T10:28:13.300Z,5.70
2017-11-17T10:29:14.249Z,5.30
2017-11-17T10:30:13.197Z,4.30
2017-11-17T10:31:13.183Z,4.40
2017-11-17T10:32:13.135Z,4.20
2017-11-17T10:33:13.092Z,4.40
2017-11-17T10:34:13.063Z,4.10
2017-11-17T10:35:13.012Z,4.10
2017-11-17T10:36:12.971Z,4.00
2017-11-17T10:37:12.926Z,3.30
2017-11-17T10:38:12.898Z,4.10
2017-11-17T10:39:12.861Z,3.60
2017-11-17T10:40:12.818Z,4.30
2017-11-17T10:41:12.792Z,4.20
2017-11-17T10:42:12.746Z,3.90
2017-11-17T10:43:12.741Z,3.70
2017-11-17T10:44:12.663Z,3.70
2017-11-17T10:45:12.621Z,3.60
2017-11-17T10:46:12.591Z,3.30
2017-11-17T10:47:12.571Z,3.80
2017-11-17T10:48:13.262Z,3.90
2017-11-17T10:49:12.472Z,3.20
2017-11-17T10:50:12.446Z,3.20
2017-11-17T10:51:12.407Z,3.80
2017-11-17T10:52:12.358Z,3.20
2017-11-17T10:53:12.337Z,2.70
2017-11-17T10:54:12.276Z,3.60
2017-11-17T10:55:12.243Z,3.80
2017-11-17T10:56:12.196Z,3.60
2017-11-17T10:57:12.168Z,3.60
2017-11-17T10:58:12.131Z,3.70
2017-11-17T10:59:12.089Z,3.50
2017-11-17T11:00:12.062Z,3.50
2017-11-17T11:01:12.012Z,3.20
2017-11-17T11:02:12.362Z,3.30
2017-11-17T11:03:11.927Z,3.90
2017-11-17T11:04:11.897Z,3.40
2017-11-17T11:05:11.853Z,3.30
2017-11-17T11:06:11.816Z,3.60
2017-11-17T11:07:11.776Z,3.00
2017-11-17T11:08:11.745Z,3.30
2017-11-17T11:09:11.716Z,3.20
2017-11-17T11:10:11.660Z,3.00
2017-11-17T11:11:11.623Z,3.60
2017-11-17T11:12:11.587Z,3.50
2017-11-17T11:13:11.564Z,3.60
2017-11-17T11:14:11.505Z,3.80
2017-11-17T11:15:11.469Z,4.40
2017-11-17T11:16:11.430Z,3.00
2017-11-17T11:17:11.391Z,3.00
2017-11-17T11:18:11.352Z,3.60
2017-11-17T11:19:11.325Z,3.70
2017-11-17T11:20:11.276Z,3.30
2017-11-17T11:21:11.234Z,3.70
2017-11-17T11:22:11.204Z,3.60
2017-11-17T11:23:11.160Z,3.80
2017-11-17T11:24:11.120Z,3.30
2017-11-17T11:25:11.082Z,3.50
2017-11-17T11:26:11.042Z,3.50
2017-11-17T11:27:11.016Z,3.90
2017-11-17T11:28:10.976Z,3.20
2017-11-17T11:29:10.930Z,3.10
2017-11-17T11:30:10.891Z,3.20
2017-11-17T11:31:10.853Z,3.80
2017-11-17T11:32:10.816Z,3.70
2017-11-17T11:33:10.777Z,3.60
2017-11-17T11:34:10.748Z,3.50
2017-11-17T11:35:10.711Z,3.60
2017-11-17T11:36:10.663Z,3.00
2017-11-17T11:37:10.631Z,3.30
2017-11-17T11:38:10.598Z,2.90
2017-11-17T11:39:10.547Z,3.60
2017-11-17T11:40:10.511Z,3.10
2017-11-17T11:41:10.471Z,2.80
2017-11-17T11:42:10.433Z,3.40
2017-11-17T11:43:10.400Z,2.80
2017-11-17T11:44:10.357Z,3.60
2017-11-17T11:45:10.319Z,3.30
2017-11-17T11:46:10.278Z,3.10
2017-11-17T11:47:10.242Z,3.30
2017-11-17T11:48:11.765Z,3.20
2017-11-17T11:49:10.170Z,2.70
2017-11-17T11:50:10.128Z,2.90
2017-11-17T11:51:10.096Z,2.60
2017-11-17T11:52:10.052Z,3.10
2017-11-17T11:53:10.006Z,3.20
2017-11-17T11:54:09.970Z,2.80
2017-11-17T11:55:09.943Z,4.10
2017-11-17T11:56:09.895Z,3.60
2017-11-17T11:57:10.764Z,3.20
2017-11-17T11:58:09.817Z,3.10
2017-11-17T11:59:09.780Z,3.00
2017-11-17T12:00:09.748Z,3.00
2017-11-17T12:01:09.727Z,3.40
2017-11-17T12:02:09.665Z,2.90
2017-11-17T12:03:09.646Z,3.10
2017-11-17T12:04:09.590Z,3.30
2017-11-17T12:05:09.571Z,2.80
2017-11-17T12:06:09.517Z,3.50
2017-11-17T12:07:09.496Z,4.30
2017-11-17T12:08:09.459Z,3.40
2017-11-17T12:09:09.421Z,3.10
2017-11-17T12:10:09.365Z,3.60
2017-11-17T12:11:09.323Z,3.40
2017-11-17T12:12:09.303Z,3.20
2017-11-17T12:13:09.245Z,3.30
2017-11-17T12:14:09.205Z,3.10
2017-11-17T12:15:09.170Z,3.40
2017-11-17T12:16:09.139Z,3.00
2017-11-17T12:17:09.095Z,3.00
2017-11-17T12:18:09.063Z,3.30
2017-11-17T12:19:09.020Z,2.90
2017-11-17T12:20:08.973Z,2.70
2017-11-17T12:21:08.955Z,2.80
2017-11-17T12:22:08.898Z,3.40
2017-11-17T12:23:08.859Z,3.10
2017-11-17T12:24:08.829Z,3.00
2017-11-17T12:25:08.783Z,3.70
2017-11-17T12:26:08.745Z,3.00
2017-11-17T12:27:08.708Z,3.10
2017-11-17T12:28:09.378Z,3.20
2017-11-17T12:29:08.629Z,3.00
2017-11-17T12:30:08.590Z,3.00
2017-11-17T12:31:08.553Z,2.70
2017-11-17T12:32:08.528Z,2.90
2017-11-17T12:33:08.485Z,3.00
2017-11-17T12:34:08.447Z,2.70
2017-11-17T12:35:08.400Z,2.90
2017-11-17T12:36:08.360Z,2.80
2017-11-17T12:37:08.321Z,2.80
2017-11-17T12:38:08.291Z,2.90
2017-11-17T12:39:08.248Z,2.60
2017-11-17T12:40:08.215Z,3.00
2017-11-17T12:41:08.172Z,3.30
2017-11-17T12:42:08.141Z,2.50
2017-11-17T12:43:08.107Z,2.30
2017-11-17T12:44:08.075Z,2.10
2017-11-17T12:45:08.026Z,3.00
2017-11-17T12:46:07.987Z,2.90
2017-11-17T12:47:07.943Z,3.20
2017-11-17T12:48:07.900Z,3.10
2017-11-17T12:49:07.877Z,2.80
2017-11-17T12:50:07.846Z,3.30
2017-11-17T12:51:07.811Z,3.30
2017-11-17T12:52:07.754Z,2.90
2017-11-17T12:53:07.719Z,2.90
2017-11-17T12:54:07.670Z,2.90
2017-11-17T12:55:07.646Z,3.00
2017-11-17T12:56:07.595Z,2.90
2017-11-17T12:57:07.557Z,3.40
2017-11-17T12:58:07.519Z,3.00
2017-11-17T12:59:07.496Z,3.10
2017-11-17T13:00:07.451Z,2.90